Airfield :
LOGIN :

Register | Disclaimer

   EN    FR    IT 

 










Legend :    VFR   Marginal VFR   IFR   Intensive IFR   Very Intensive IFR
Visi :
Ceiling :
>= 8 km
>= 3000ft
5 to 8 km
1000 to 3000 ft
1500m to 5 km
500 to 1000 ft
800 to 1500m
200 to 500 ft
< 800m
< 200 ft
Symbols :   Thunderstorms  Fog  Heavy snow  Heavy precipitations  Wind > 20 kt
SIGMETs :     Misc.  Thunderstorms  Icing  Turbulence  Mountain Waves  Volcanic Ashes






- Airport Elevation : 656 ft


UUBC - Grabtsevo

CURRENT METAR :
  • 032000Z AUTO 27008MPS 240V300 9999 // NSC 10/M05 Q1005 RMK QFE736/0982

EXPIRED METARs :
  • 031900Z AUTO 27003MPS 9999 // ///078/// 10/M06 Q1005 RMK QFE735/0981
  • 031800Z AUTO 23003MPS 200V260 9999 // 10/M06 Q1004 RMK QFE735/0980

TAF TAF UUBC
Valid from the 03 at 18:00 until the 04 at 03:00 UTC


031653Z 0318/0403 21005MPS 9999 BKN016
TEMPO 0318/0403 24008G14MPS 3100 -SHRA BKN015CB



MET'MAP, your aeronautical weather chart ! - Copyright ORBIFLY December 2007 - Disclaimer

ORBIFLY MET'MAP TEAM :

Programming & Development : Alexandra Zaïnal
Concept & original design : Baudouin d'Aumeries
Assistance for programming : Marc-Olivier Méhu
Technical & hardware support : Manuel Goepfert

Contact : metmap@orbifly.com




SOURCES & CREDITS :

   NOAA